createdAt,value
2018-03-20T00:00:08.582Z,7.40
2018-03-20T00:02:35.283Z,7.68
2018-03-20T00:05:02.002Z,7.70
2018-03-20T00:07:28.689Z,7.22
2018-03-20T00:09:55.439Z,6.90
2018-03-20T00:12:22.153Z,7.57
2018-03-20T00:14:48.902Z,8.30
2018-03-20T00:17:15.704Z,8.18
2018-03-20T00:19:42.417Z,8.45
2018-03-20T00:22:09.206Z,8.70
2018-03-20T00:24:35.919Z,7.97
2018-03-20T00:27:02.593Z,7.55
2018-03-20T00:29:29.269Z,8.52
2018-03-20T00:31:55.979Z,7.53
2018-03-20T00:34:22.657Z,8.52
2018-03-20T00:36:49.354Z,8.27
2018-03-20T00:39:16.102Z,7.68
2018-03-20T00:41:42.809Z,10.07
2018-03-20T00:44:09.516Z,8.15
2018-03-20T00:46:36.206Z,8.65
2018-03-20T00:49:02.889Z,7.87
2018-03-20T00:51:29.585Z,6.68
2018-03-20T00:53:56.266Z,8.23
2018-03-20T00:56:22.978Z,7.28
2018-03-20T00:58:49.768Z,8.05
2018-03-20T01:01:16.448Z,9.50
2018-03-20T01:03:43.213Z,9.43
2018-03-20T01:06:09.894Z,8.55
2018-03-20T01:08:36.605Z,8.40
2018-03-20T01:11:03.297Z,8.07
2018-03-20T01:13:29.989Z,7.18
2018-03-20T01:15:56.700Z,8.00
2018-03-20T01:18:23.398Z,8.07
2018-03-20T01:20:50.097Z,6.82
2018-03-20T01:23:16.778Z,9.23
2018-03-20T01:25:43.689Z,6.95
2018-03-20T01:28:10.376Z,8.82
2018-03-20T01:30:37.287Z,8.75
2018-03-20T01:33:03.956Z,7.70
2018-03-20T01:35:30.657Z,9.02
2018-03-20T01:37:57.454Z,7.80
2018-03-20T01:40:24.159Z,8.55
2018-03-20T01:42:50.855Z,8.07
2018-03-20T01:45:17.569Z,9.25
2018-03-20T01:47:44.253Z,8.68
2018-03-20T01:50:10.942Z,8.70
2018-03-20T01:52:37.646Z,8.65
2018-03-20T01:55:04.317Z,8.00
2018-03-20T01:57:31.064Z,8.68
2018-03-20T01:59:57.904Z,7.60
2018-03-20T02:02:24.589Z,8.00
2018-03-20T02:04:51.289Z,8.63
2018-03-20T02:07:17.981Z,8.80
2018-03-20T02:09:44.698Z,8.90
2018-03-20T02:12:11.390Z,8.25
2018-03-20T02:14:38.093Z,8.15
2018-03-20T02:17:04.789Z,9.85
2018-03-20T02:19:31.484Z,8.32
2018-03-20T02:21:58.157Z,8.98
2018-03-20T02:24:24.973Z,8.45
2018-03-20T02:26:51.656Z,9.07
2018-03-20T02:29:18.437Z,8.10
2018-03-20T02:31:45.145Z,10.63
2018-03-20T02:34:11.961Z,9.77
2018-03-20T02:36:38.653Z,8.65
2018-03-20T02:39:05.374Z,8.68
2018-03-20T02:41:32.082Z,8.65
2018-03-20T02:43:58.857Z,8.07
2018-03-20T02:46:25.557Z,9.45
2018-03-20T02:48:52.264Z,9.93
2018-03-20T02:51:19.017Z,9.75
2018-03-20T02:53:45.741Z,11.50
2018-03-20T02:56:12.558Z,10.57
2018-03-20T02:58:39.356Z,11.60
2018-03-20T03:01:06.057Z,9.10
2018-03-20T03:03:32.743Z,7.43
2018-03-20T03:05:59.444Z,9.57
2018-03-20T03:08:26.154Z,9.45
2018-03-20T03:10:52.937Z,8.80
2018-03-20T03:13:19.626Z,8.40
2018-03-20T03:15:46.486Z,8.65
2018-03-20T03:18:13.188Z,9.25
2018-03-20T03:20:40.009Z,8.90
2018-03-20T03:23:06.729Z,7.75
2018-03-20T03:25:33.412Z,9.55
2018-03-20T03:28:00.134Z,10.30
2018-03-20T03:30:26.920Z,7.80
2018-03-20T03:32:53.610Z,8.63
2018-03-20T03:35:20.317Z,7.07
2018-03-20T03:37:47.042Z,9.38
2018-03-20T03:40:13.810Z,9.45
2018-03-20T03:42:40.619Z,8.30
2018-03-20T03:45:07.321Z,7.93
2018-03-20T03:47:34.061Z,10.02
2018-03-20T03:50:00.838Z,9.68
2018-03-20T03:52:27.662Z,10.45
2018-03-20T03:54:54.449Z,10.60
2018-03-20T03:57:21.150Z,9.30
2018-03-20T03:59:47.900Z,10.50
2018-03-20T04:02:14.596Z,8.50
2018-03-20T04:04:41.358Z,8.98
2018-03-20T04:07:08.050Z,7.95
2018-03-20T04:09:34.963Z,8.50
2018-03-20T04:12:01.657Z,9.00
2018-03-20T04:14:28.341Z,8.18
2018-03-20T04:16:55.050Z,8.90
2018-03-20T04:19:21.733Z,8.63
2018-03-20T04:21:48.425Z,10.75
2018-03-20T04:24:15.141Z,9.57
2018-03-20T04:26:41.846Z,8.07
2018-03-20T04:29:08.563Z,9.57
2018-03-20T04:31:35.249Z,8.32
2018-03-20T04:34:02.108Z,9.27
2018-03-20T04:36:28.784Z,8.55
2018-03-20T04:38:55.497Z,10.20
2018-03-20T04:41:22.193Z,9.18
2018-03-20T04:43:48.873Z,9.60
2018-03-20T04:46:15.590Z,10.13
2018-03-20T04:48:42.278Z,9.95
2018-03-20T04:51:08.989Z,9.95
2018-03-20T04:53:35.681Z,10.60
2018-03-20T04:56:02.611Z,11.68
2018-03-20T04:58:29.313Z,10.32
2018-03-20T05:00:56.005Z,9.80
2018-03-20T05:03:22.710Z,11.23
2018-03-20T05:05:49.481Z,10.40
2018-03-20T05:08:16.185Z,9.38
2018-03-20T05:10:42.888Z,10.13
2018-03-20T05:13:09.597Z,10.25
2018-03-20T05:15:36.452Z,11.20
2018-03-20T05:18:03.140Z,11.45
2018-03-20T05:20:37.517Z,10.57
2018-03-20T05:23:09.941Z,10.55
2018-03-20T05:25:36.711Z,12.13
2018-03-20T05:28:03.418Z,10.90
2018-03-20T05:30:30.102Z,11.65
2018-03-20T05:32:56.810Z,10.93
2018-03-20T05:35:23.501Z,11.25
2018-03-20T05:37:50.219Z,11.38
2018-03-20T05:40:17.036Z,10.95
2018-03-20T05:42:44.693Z,12.80
2018-03-20T05:45:11.384Z,11.32
2018-03-20T05:47:53.806Z,12.15
2018-03-20T05:50:26.197Z,11.20
2018-03-20T05:52:52.946Z,11.82
2018-03-20T05:55:19.661Z,11.55
2018-03-20T05:57:46.535Z,11.57
2018-03-20T06:00:13.214Z,11.57
2018-03-20T06:02:39.904Z,11.02
2018-03-20T06:05:06.649Z,11.65
2018-03-20T06:07:33.369Z,11.40
2018-03-20T06:10:00.057Z,12.77
2018-03-20T06:12:26.770Z,11.23
2018-03-20T06:14:53.501Z,13.62
2018-03-20T06:17:20.236Z,11.50
2018-03-20T06:19:46.966Z,12.63
2018-03-20T06:22:13.673Z,13.00
2018-03-20T06:24:40.377Z,13.10
2018-03-20T06:27:07.197Z,18.30
2018-03-20T06:29:33.930Z,18.30
2018-03-20T06:32:00.626Z,16.25
2018-03-20T06:34:27.354Z,14.80
2018-03-20T06:36:54.070Z,15.73
2018-03-20T06:39:20.806Z,14.32
2018-03-20T06:41:47.512Z,15.40
2018-03-20T06:44:14.225Z,16.67
2018-03-20T06:46:40.951Z,14.52
2018-03-20T06:49:07.698Z,16.12
2018-03-20T06:51:34.405Z,14.18
2018-03-20T06:54:01.092Z,13.65
2018-03-20T06:56:27.813Z,15.65
2018-03-20T06:58:54.538Z,15.73
2018-03-20T07:01:21.317Z,16.43
2018-03-20T07:03:48.101Z,16.83
2018-03-20T07:06:14.840Z,17.00
2018-03-20T07:08:41.518Z,16.80
2018-03-20T07:11:08.189Z,18.10
2018-03-20T07:13:35.064Z,17.98
2018-03-20T07:16:01.761Z,16.77
2018-03-20T07:18:28.442Z,16.10
2018-03-20T07:20:55.149Z,19.62
2018-03-20T07:23:22.018Z,15.80
2018-03-20T07:25:48.701Z,15.93
2018-03-20T07:28:15.599Z,15.60
2018-03-20T07:30:42.242Z,15.37
2018-03-20T07:33:08.913Z,14.30
2018-03-20T07:35:35.613Z,13.90
2018-03-20T07:38:02.372Z,12.90
2018-03-20T07:40:29.153Z,13.93
2018-03-20T07:42:56.041Z,13.67
2018-03-20T07:45:22.726Z,16.10
2018-03-20T07:47:49.442Z,13.30
2018-03-20T07:50:16.156Z,13.00
2018-03-20T07:52:42.899Z,12.87
2018-03-20T07:55:09.589Z,13.83
2018-03-20T07:57:36.271Z,13.17
2018-03-20T08:00:02.977Z,13.07
2018-03-20T08:02:29.718Z,12.97
2018-03-20T08:04:56.421Z,12.50
2018-03-20T08:07:23.135Z,11.57
2018-03-20T08:09:49.838Z,12.83
2018-03-20T08:12:16.534Z,11.60
2018-03-20T08:14:43.269Z,12.17
2018-03-20T08:17:09.986Z,10.23
2018-03-20T08:19:36.684Z,10.03
2018-03-20T08:22:03.381Z,9.60
2018-03-20T08:24:30.169Z,9.17
2018-03-20T08:26:56.894Z,7.80
2018-03-20T08:29:23.594Z,10.40
2018-03-20T08:31:50.278Z,9.80
2018-03-20T08:34:17.055Z,9.10
2018-03-20T08:36:43.889Z,7.63
2018-03-20T08:39:10.651Z,7.77
2018-03-20T08:41:37.496Z,6.30
2018-03-20T08:44:04.201Z,5.00
2018-03-20T08:46:30.917Z,6.10
2018-03-20T08:48:57.700Z,4.97
2018-03-20T08:51:24.513Z,5.80
2018-03-20T08:53:51.196Z,5.13
2018-03-20T08:56:18.035Z,6.07
2018-03-20T08:58:44.737Z,6.20
2018-03-20T09:01:11.614Z,5.27
2018-03-20T09:03:38.556Z,4.47
2018-03-20T09:06:05.403Z,6.57
2018-03-20T09:08:32.110Z,4.50
2018-03-20T09:10:58.863Z,4.73
2018-03-20T09:13:25.561Z,4.60
2018-03-20T09:15:52.269Z,3.83
2018-03-20T09:18:18.997Z,5.03
2018-03-20T09:20:45.661Z,5.17
2018-03-20T09:23:12.382Z,3.90
2018-03-20T09:25:39.216Z,3.33
2018-03-20T09:28:05.933Z,4.20
2018-03-20T09:30:32.945Z,3.40
2018-03-20T09:32:59.633Z,4.03
2018-03-20T09:35:26.369Z,4.17
2018-03-20T09:37:53.053Z,5.10
2018-03-20T09:40:19.882Z,2.97
2018-03-20T09:42:46.583Z,3.47
2018-03-20T09:45:13.481Z,3.63
2018-03-20T09:47:40.273Z,4.63
2018-03-20T09:50:06.930Z,3.70
2018-03-20T09:52:33.618Z,3.73
2018-03-20T09:55:00.395Z,3.70
2018-03-20T09:57:27.070Z,3.07
2018-03-20T09:59:53.773Z,3.60
2018-03-20T10:02:20.458Z,3.27
2018-03-20T10:04:47.135Z,2.93
2018-03-20T10:07:13.822Z,2.50
2018-03-20T10:09:40.493Z,2.63
2018-03-20T10:12:07.197Z,2.27
2018-03-20T10:14:33.872Z,2.10
2018-03-20T10:17:00.618Z,2.00
2018-03-20T10:19:27.329Z,2.50
2018-03-20T10:21:53.989Z,1.50
2018-03-20T10:24:20.688Z,1.83
2018-03-20T10:26:47.393Z,1.93
2018-03-20T10:29:14.087Z,1.63
2018-03-20T10:31:40.762Z,1.53
2018-03-20T10:34:07.472Z,2.43
2018-03-20T10:36:34.273Z,2.17
2018-03-20T10:39:01.002Z,2.30
2018-03-20T10:41:27.837Z,2.77
2018-03-20T10:43:54.513Z,2.00
2018-03-20T10:46:21.325Z,2.80
2018-03-20T10:48:48.018Z,1.73
2018-03-20T10:51:14.713Z,1.47
2018-03-20T10:53:41.396Z,1.23
2018-03-20T10:56:08.122Z,1.47
2018-03-20T10:58:34.811Z,1.47
2018-03-20T11:01:06.477Z,1.70
2018-03-20T11:03:33.237Z,1.50
2018-03-20T11:05:59.926Z,1.13
2018-03-20T11:08:26.725Z,1.10
2018-03-20T11:10:53.394Z,1.20
2018-03-20T11:13:20.201Z,1.13
2018-03-20T11:15:46.913Z,1.20
2018-03-20T11:18:13.658Z,2.07
2018-03-20T11:20:40.390Z,1.30
2018-03-20T11:23:07.253Z,1.33
2018-03-20T11:25:33.950Z,1.17
2018-03-20T11:28:00.753Z,1.10
2018-03-20T11:30:27.438Z,1.03
2018-03-20T11:32:54.180Z,1.27
2018-03-20T11:35:20.873Z,1.03
2018-03-20T11:37:47.566Z,1.20
2018-03-20T11:40:14.246Z,1.00
2018-03-20T11:42:40.942Z,0.87
2018-03-20T11:45:07.621Z,1.37
2018-03-20T11:47:34.425Z,1.27
2018-03-20T11:50:01.101Z,0.97
2018-03-20T11:52:27.838Z,0.80
2018-03-20T11:54:54.504Z,1.10
2018-03-20T11:57:21.282Z,1.10
2018-03-20T11:59:47.980Z,1.17
2018-03-20T12:02:14.689Z,1.10
2018-03-20T12:04:41.328Z,1.20
2018-03-20T12:07:08.070Z,0.80
2018-03-20T12:09:49.618Z,1.13
2018-03-20T12:12:16.318Z,1.00
2018-03-20T12:14:43.059Z,0.70
2018-03-20T12:17:09.785Z,0.87
2018-03-20T12:19:36.466Z,1.20
2018-03-20T12:22:03.158Z,0.70
2018-03-20T12:24:29.834Z,1.13
2018-03-20T12:26:56.532Z,1.47
2018-03-20T12:29:23.220Z,0.90
2018-03-20T12:31:49.930Z,1.50
2018-03-20T12:34:16.617Z,1.10
2018-03-20T12:36:43.297Z,1.30
2018-03-20T12:39:10.195Z,1.10
2018-03-20T12:41:36.881Z,0.90
2018-03-20T12:44:03.694Z,1.47
2018-03-20T12:46:30.400Z,1.10
2018-03-20T12:48:57.050Z,0.77
2018-03-20T12:51:23.834Z,0.90
2018-03-20T12:53:50.525Z,1.87
2018-03-20T12:56:17.209Z,0.93
2018-03-20T12:58:44.114Z,0.90
2018-03-20T13:01:10.793Z,0.90
2018-03-20T13:03:37.499Z,0.83
2018-03-20T13:06:04.211Z,0.80
2018-03-20T13:08:31.024Z,2.03
2018-03-20T13:10:57.835Z,1.17
2018-03-20T13:13:27.570Z,1.13
2018-03-20T13:15:54.264Z,1.07
2018-03-20T13:18:21.034Z,0.90
2018-03-20T13:20:47.713Z,0.87
2018-03-20T13:23:14.654Z,1.30
2018-03-20T13:25:41.297Z,0.90
2018-03-20T13:28:07.976Z,1.40
2018-03-20T13:30:34.699Z,1.40
2018-03-20T13:33:01.387Z,1.10
2018-03-20T13:35:28.201Z,1.20
2018-03-20T13:37:54.886Z,1.03
2018-03-20T13:40:21.585Z,0.97
2018-03-20T13:42:48.342Z,1.50
2018-03-20T13:45:15.112Z,1.90
2018-03-20T13:47:41.789Z,2.20
2018-03-20T13:50:08.501Z,1.73
2018-03-20T13:52:35.199Z,1.43
2018-03-20T13:55:01.903Z,1.30
2018-03-20T13:57:28.604Z,1.13
2018-03-20T13:59:55.281Z,1.70
2018-03-20T14:02:22.067Z,1.17
2018-03-20T14:04:48.753Z,0.90
2018-03-20T14:07:15.453Z,0.87
2018-03-20T14:09:42.131Z,1.40
2018-03-20T14:12:08.970Z,1.30
2018-03-20T14:14:35.671Z,1.43
2018-03-20T14:17:02.370Z,0.83
2018-03-20T14:19:29.137Z,1.03
2018-03-20T14:21:55.809Z,0.80
2018-03-20T14:24:22.499Z,0.90
2018-03-20T14:26:49.186Z,1.50
2018-03-20T14:29:15.894Z,2.00
2018-03-20T14:31:42.588Z,1.20
2018-03-20T14:34:09.251Z,1.30
2018-03-20T14:36:36.054Z,1.20
2018-03-20T14:39:02.757Z,1.33
2018-03-20T14:41:29.451Z,0.90
2018-03-20T14:43:56.148Z,1.43
2018-03-20T14:46:22.821Z,1.30
2018-03-20T14:48:49.489Z,1.30
2018-03-20T14:51:16.209Z,1.10
2018-03-20T14:53:42.997Z,1.73
2018-03-20T14:56:09.724Z,1.47
2018-03-20T14:58:36.486Z,0.87
2018-03-20T15:01:03.177Z,0.77
2018-03-20T15:03:29.885Z,1.00
2018-03-20T15:05:56.595Z,1.10
2018-03-20T15:08:23.317Z,0.90
2018-03-20T15:10:49.994Z,2.10
2018-03-20T15:13:16.695Z,1.10
2018-03-20T15:15:43.401Z,1.00
2018-03-20T15:18:10.185Z,0.77
2018-03-20T15:20:36.900Z,3.23
2018-03-20T15:23:03.817Z,1.00
2018-03-20T15:25:30.532Z,0.83
2018-03-20T15:27:57.256Z,0.90
2018-03-20T15:30:23.947Z,1.07
2018-03-20T15:32:50.604Z,0.90
2018-03-20T15:35:17.350Z,0.97
2018-03-20T15:37:44.037Z,1.60
2018-03-20T15:40:10.758Z,0.70
2018-03-20T15:42:37.487Z,0.90
2018-03-20T15:45:04.214Z,0.90
2018-03-20T15:47:30.882Z,1.10
2018-03-20T15:49:57.825Z,2.00
2018-03-20T15:52:24.501Z,1.63
2018-03-20T15:54:51.200Z,1.00
2018-03-20T15:57:17.893Z,1.67
2018-03-20T15:59:44.569Z,1.50
2018-03-20T16:02:11.257Z,1.50
2018-03-20T16:04:38.066Z,1.37
2018-03-20T16:07:04.769Z,0.90
2018-03-20T16:09:31.492Z,0.90
2018-03-20T16:11:58.174Z,1.37
2018-03-20T16:14:24.861Z,1.57
2018-03-20T16:16:51.769Z,1.20
2018-03-20T16:19:18.625Z,1.20
2018-03-20T16:21:45.328Z,0.97
2018-03-20T16:24:12.218Z,1.10
2018-03-20T16:26:38.902Z,0.87
2018-03-20T16:29:05.723Z,0.93
2018-03-20T16:31:32.423Z,1.00
2018-03-20T16:33:59.179Z,1.10
2018-03-20T16:36:25.924Z,0.83
2018-03-20T16:38:52.600Z,1.47
2018-03-20T16:41:19.306Z,1.10
2018-03-20T16:43:46.017Z,1.30
2018-03-20T16:46:12.833Z,1.70
2018-03-20T16:48:39.518Z,1.30
2018-03-20T16:51:06.199Z,1.70
2018-03-20T16:53:32.978Z,2.00
2018-03-20T16:55:59.662Z,1.60
2018-03-20T16:58:26.483Z,3.13
2018-03-20T17:00:53.188Z,1.50
2018-03-20T17:03:19.894Z,1.42
2018-03-20T17:05:46.576Z,1.37
2018-03-20T17:08:13.272Z,1.03
2018-03-20T17:10:39.956Z,1.07
2018-03-20T17:13:06.795Z,1.03
2018-03-20T17:15:33.464Z,0.90
2018-03-20T17:18:00.206Z,0.90
2018-03-20T17:20:26.882Z,1.07
2018-03-20T17:22:53.601Z,1.23
2018-03-20T17:25:20.289Z,0.90
2018-03-20T17:27:46.986Z,0.97
2018-03-20T17:30:13.683Z,1.20
2018-03-20T17:32:40.377Z,1.00
2018-03-20T17:35:07.057Z,1.10
2018-03-20T17:37:33.839Z,1.07
2018-03-20T17:40:00.553Z,1.17
2018-03-20T17:42:27.274Z,1.07
2018-03-20T17:44:53.970Z,0.77
2018-03-20T17:47:20.665Z,1.30
2018-03-20T17:49:47.377Z,1.50
2018-03-20T17:52:14.209Z,1.50
2018-03-20T17:54:41.077Z,2.30
2018-03-20T17:57:07.764Z,1.90
2018-03-20T17:59:34.438Z,1.50
2018-03-20T18:02:01.118Z,1.00
2018-03-20T18:04:27.818Z,1.37
2018-03-20T18:06:54.557Z,1.47
2018-03-20T18:09:21.240Z,1.30
2018-03-20T18:11:47.955Z,1.57
2018-03-20T18:14:14.844Z,1.20
2018-03-20T18:16:41.565Z,1.63
2018-03-20T18:19:08.260Z,1.73
2018-03-20T18:21:34.965Z,1.70
2018-03-20T18:24:01.681Z,2.00
2018-03-20T18:26:28.383Z,1.97
2018-03-20T18:28:55.079Z,2.53
2018-03-20T18:31:21.781Z,1.87
2018-03-20T18:33:48.494Z,1.93
2018-03-20T18:36:15.184Z,1.67
2018-03-20T18:38:42.823Z,1.53
2018-03-20T18:41:09.494Z,2.27
2018-03-20T18:43:36.194Z,2.20
2018-03-20T18:46:02.972Z,1.93
2018-03-20T18:48:29.730Z,1.73
2018-03-20T18:50:56.441Z,2.30
2018-03-20T18:53:23.328Z,3.00
2018-03-20T18:55:50.076Z,2.90
2018-03-20T18:58:16.745Z,3.00
2018-03-20T19:00:43.445Z,2.97
2018-03-20T19:03:10.161Z,2.07
2018-03-20T19:05:36.912Z,2.40
2018-03-20T19:08:03.569Z,2.23
2018-03-20T19:10:30.271Z,2.57
2018-03-20T19:12:56.987Z,2.10
2018-03-20T19:15:23.706Z,2.20
2018-03-20T19:17:50.471Z,2.03
2018-03-20T19:20:17.197Z,2.70
2018-03-20T19:22:43.932Z,2.20
2018-03-20T19:25:10.653Z,2.70
2018-03-20T19:27:37.376Z,2.30
2018-03-20T19:30:04.070Z,3.67
2018-03-20T19:32:30.750Z,2.07
2018-03-20T19:34:57.465Z,1.50
2018-03-20T19:37:24.234Z,2.07
2018-03-20T19:39:50.934Z,2.20
2018-03-20T19:42:17.765Z,2.30
2018-03-20T19:44:44.450Z,2.43
2018-03-20T19:47:11.177Z,2.00
2018-03-20T19:49:37.950Z,2.70
2018-03-20T19:52:04.680Z,2.40
2018-03-20T19:54:31.399Z,2.23
2018-03-20T19:56:58.171Z,2.70
2018-03-20T19:59:24.875Z,2.60
2018-03-20T20:01:54.589Z,2.17
2018-03-20T20:04:22.131Z,2.80
2018-03-20T20:06:48.848Z,2.70
2018-03-20T20:09:15.640Z,2.13
2018-03-20T20:11:43.017Z,2.40
2018-03-20T20:14:09.719Z,2.87
2018-03-20T20:16:36.498Z,2.00
2018-03-20T20:19:03.263Z,1.70
2018-03-20T20:21:29.952Z,2.23
2018-03-20T20:23:56.654Z,2.63
2018-03-20T20:26:23.350Z,2.17
2018-03-20T20:28:50.029Z,2.33
2018-03-20T20:31:16.820Z,2.37
2018-03-20T20:33:43.522Z,2.47
2018-03-20T20:36:10.246Z,2.27
2018-03-20T20:38:36.918Z,2.10
2018-03-20T20:41:03.602Z,2.67
2018-03-20T20:43:30.327Z,2.20
2018-03-20T20:45:57.072Z,3.27
2018-03-20T20:48:23.781Z,2.40
2018-03-20T20:50:50.490Z,2.70
2018-03-20T20:53:17.211Z,2.70
2018-03-20T20:58:10.901Z,2.70
2018-03-20T21:00:37.668Z,3.40
2018-03-20T21:03:04.382Z,2.50
2018-03-20T21:05:31.075Z,2.30
2018-03-20T21:07:57.782Z,2.50
2018-03-20T21:10:24.494Z,2.33
2018-03-20T21:12:51.170Z,1.90
2018-03-20T21:15:17.859Z,2.60
2018-03-20T21:17:44.617Z,2.80
2018-03-20T21:20:11.397Z,2.60
2018-03-20T21:22:38.105Z,2.23
2018-03-20T21:25:04.782Z,2.67
2018-03-20T21:27:31.491Z,2.67
2018-03-20T21:29:58.209Z,3.20
2018-03-20T21:32:24.881Z,3.17
2018-03-20T21:34:51.589Z,4.80
2018-03-20T21:37:18.294Z,4.50
2018-03-20T21:39:45.002Z,3.80
2018-03-20T21:42:11.703Z,3.13
2018-03-20T21:47:14.444Z,2.70
2018-03-20T21:49:41.158Z,3.27
2018-03-20T21:52:07.889Z,2.87
2018-03-20T21:54:34.633Z,2.87
2018-03-20T21:57:01.322Z,4.17
2018-03-20T21:59:28.023Z,2.57
2018-03-20T22:01:54.699Z,3.40
2018-03-20T22:04:21.398Z,3.17
2018-03-20T22:06:48.103Z,4.47
2018-03-20T22:09:14.851Z,3.70
2018-03-20T22:11:41.559Z,3.23
2018-03-20T22:14:08.234Z,2.97
2018-03-20T22:16:34.961Z,2.83
2018-03-20T22:19:01.657Z,2.27
2018-03-20T22:21:28.525Z,2.00
2018-03-20T22:23:55.201Z,2.33
2018-03-20T22:26:21.882Z,1.90
2018-03-20T22:28:48.579Z,2.90
2018-03-20T22:31:15.270Z,1.97
2018-03-20T22:33:41.981Z,2.23
2018-03-20T22:36:08.674Z,3.00
2018-03-20T22:38:35.350Z,3.27
2018-03-20T22:41:02.069Z,3.47
2018-03-20T22:43:28.747Z,3.00
2018-03-20T22:45:55.457Z,2.77
2018-03-20T22:48:22.136Z,3.20
2018-03-20T22:50:48.813Z,3.13
2018-03-20T22:53:15.543Z,3.70
2018-03-20T22:55:42.262Z,3.90
2018-03-20T22:58:08.947Z,3.10
2018-03-20T23:00:35.698Z,2.97
2018-03-20T23:03:02.414Z,3.90
2018-03-20T23:05:29.093Z,3.23
2018-03-20T23:07:55.781Z,2.90
2018-03-20T23:10:22.463Z,3.07
2018-03-20T23:12:49.155Z,3.03
2018-03-20T23:15:15.825Z,3.00
2018-03-20T23:17:42.546Z,2.20
2018-03-20T23:20:09.249Z,2.20
2018-03-20T23:22:36.033Z,2.83
2018-03-20T23:25:02.716Z,2.50
2018-03-20T23:27:29.395Z,2.33
2018-03-20T23:29:56.073Z,3.20
2018-03-20T23:32:22.741Z,2.23
2018-03-20T23:34:49.446Z,1.70
2018-03-20T23:37:16.133Z,2.60
2018-03-20T23:39:42.845Z,1.67
2018-03-20T23:42:09.638Z,2.27
2018-03-20T23:44:36.412Z,2.47
2018-03-20T23:47:03.253Z,2.33
2018-03-20T23:49:29.917Z,2.20
2018-03-20T23:51:56.627Z,2.00
2018-03-20T23:54:23.302Z,2.80
2018-03-20T23:56:50.029Z,2.80
2018-03-20T23:59:16.777Z,1.80
